createdAt,value
2022-11-15T00:00:29.019Z,99440.00
2022-11-15T00:03:16.792Z,99444.00
2022-11-15T00:06:05.879Z,99440.00
2022-11-15T00:08:52.403Z,99439.00
2022-11-15T00:11:40.519Z,99440.00
2022-11-15T00:14:27.000Z,99443.00
2022-11-15T00:17:13.831Z,99435.00
2022-11-15T00:20:00.527Z,99424.00
2022-11-15T00:22:47.381Z,99432.00
2022-11-15T00:25:34.187Z,99430.00
2022-11-15T00:28:22.013Z,99427.00
2022-11-15T00:31:13.913Z,99407.00
2022-11-15T00:34:00.724Z,99431.00
2022-11-15T00:36:47.387Z,99432.00
2022-11-15T00:39:34.056Z,99427.00
2022-11-15T00:42:20.969Z,99429.00
2022-11-15T00:45:10.878Z,99433.00
2022-11-15T00:47:57.595Z,99437.00
2022-11-15T00:50:44.336Z,99433.00
2022-11-15T00:53:31.114Z,99434.00
2022-11-15T00:56:18.120Z,99423.00
2022-11-15T00:59:04.773Z,99430.00
2022-11-15T01:01:52.934Z,99432.00
2022-11-15T01:04:39.475Z,99422.00
2022-11-15T01:07:26.179Z,99429.00
2022-11-15T01:10:13.980Z,99418.00
2022-11-15T01:13:00.500Z,99415.00
2022-11-15T01:15:47.064Z,99410.00
2022-11-15T01:18:35.007Z,99413.00
2022-11-15T01:21:22.269Z,99405.00
2022-11-15T01:24:10.119Z,99389.00
2022-11-15T01:26:56.601Z,99397.00
2022-11-15T01:29:43.508Z,99394.00
2022-11-15T01:32:29.901Z,99387.00
2022-11-15T01:35:17.859Z,99388.00
2022-11-15T01:38:04.626Z,99384.00
2022-11-15T01:40:51.541Z,99379.00
2022-11-15T01:43:38.989Z,99370.00
2022-11-15T01:46:34.790Z,99378.00
2022-11-15T01:49:25.812Z,99377.00
2022-11-15T01:52:20.629Z,99372.00
2022-11-15T01:55:16.248Z,99366.00
2022-11-15T01:58:07.146Z,99359.00
2022-11-15T02:00:54.792Z,99353.00
2022-11-15T02:03:50.492Z,99351.00
2022-11-15T02:06:38.151Z,99346.00
2022-11-15T02:09:25.908Z,99347.00
2022-11-15T02:12:16.013Z,99350.00
2022-11-15T02:15:03.639Z,99349.00
2022-11-15T02:18:11.893Z,99342.00
2022-11-15T02:21:18.710Z,99345.00
2022-11-15T02:24:47.543Z,99343.00
2022-11-15T02:28:27.939Z,99339.00
2022-11-15T02:31:30.322Z,99344.00
2022-11-15T02:34:30.562Z,99344.00
2022-11-15T02:37:26.126Z,99332.00
2022-11-15T02:40:28.875Z,99329.00
2022-11-15T02:43:45.183Z,99322.00
2022-11-15T02:47:00.078Z,99325.00
2022-11-15T02:49:52.013Z,99320.00
2022-11-15T02:52:38.396Z,99317.00
2022-11-15T02:55:34.536Z,99320.00
2022-11-15T02:58:57.447Z,99319.00
2022-11-15T03:02:06.312Z,99309.00
2022-11-15T03:04:59.011Z,99316.00
2022-11-15T03:08:01.844Z,99317.00
2022-11-15T03:11:05.956Z,99316.00
2022-11-15T03:14:00.768Z,99308.00
2022-11-15T03:17:00.475Z,99307.00
2022-11-15T03:19:49.598Z,99307.00
2022-11-15T03:22:39.657Z,99314.00
2022-11-15T03:25:29.965Z,99293.00
2022-11-15T03:28:30.665Z,99295.00
2022-11-15T03:31:37.875Z,99297.00
2022-11-15T03:34:33.325Z,99288.00
2022-11-15T03:37:24.176Z,99289.00
2022-11-15T03:40:12.536Z,99295.00
2022-11-15T03:43:08.890Z,99294.00
2022-11-15T03:46:02.302Z,99295.00
2022-11-15T03:48:56.212Z,99291.00
2022-11-15T03:51:44.124Z,99286.00
2022-11-15T03:54:30.760Z,99291.00
2022-11-15T03:57:17.339Z,99291.00
2022-11-15T04:00:06.134Z,99285.00
2022-11-15T04:02:53.095Z,99289.00
2022-11-15T04:05:39.756Z,99288.00
2022-11-15T04:08:27.741Z,99280.00
2022-11-15T04:11:14.592Z,99294.00
2022-11-15T04:14:01.588Z,99290.00
2022-11-15T04:16:48.321Z,99293.00
2022-11-15T04:19:52.833Z,99286.00
2022-11-15T04:22:57.379Z,99275.00
2022-11-15T04:25:46.827Z,99279.00
2022-11-15T04:28:33.547Z,99279.00
2022-11-15T04:31:20.190Z,99277.00
2022-11-15T04:34:06.799Z,99278.00
2022-11-15T04:37:11.208Z,99265.00
2022-11-15T04:39:58.022Z,99274.00
2022-11-15T04:42:46.132Z,99260.00
2022-11-15T04:45:32.981Z,99255.00
2022-11-15T04:48:19.449Z,99254.00
2022-11-15T04:51:06.264Z,99256.00
2022-11-15T04:53:52.889Z,99257.00
2022-11-15T04:56:39.540Z,99263.00
2022-11-15T04:59:27.908Z,99252.00
2022-11-15T05:02:14.351Z,99258.00
2022-11-15T05:05:00.167Z,99258.00
2022-11-15T05:07:46.542Z,99257.00
2022-11-15T05:10:33.203Z,99273.00
2022-11-15T05:13:20.063Z,99268.00
2022-11-15T05:16:08.691Z,99265.00
2022-11-15T05:18:56.072Z,99254.00
2022-11-15T05:21:43.192Z,99248.00
2022-11-15T05:24:29.685Z,99245.00
2022-11-15T05:27:16.374Z,99239.00
2022-11-15T05:30:03.342Z,99245.00
2022-11-15T05:32:52.484Z,99232.00
2022-11-15T05:35:44.703Z,99236.00
2022-11-15T05:38:31.595Z,99238.00
2022-11-15T05:41:22.708Z,99240.00
2022-11-15T05:44:13.356Z,99239.00
2022-11-15T05:47:00.511Z,99244.00
2022-11-15T05:49:53.187Z,99242.00
2022-11-15T05:52:40.160Z,99243.00
2022-11-15T05:55:26.546Z,99237.00
2022-11-15T05:58:13.420Z,99231.00
2022-11-15T06:01:01.604Z,99228.00
2022-11-15T06:03:48.521Z,99226.00
2022-11-15T06:06:36.337Z,99221.00
2022-11-15T06:09:22.929Z,99225.00
2022-11-15T06:12:09.514Z,99228.00
2022-11-15T06:14:58.578Z,99236.00
2022-11-15T06:17:47.160Z,99232.00
2022-11-15T06:20:34.114Z,99237.00
2022-11-15T06:23:22.193Z,99234.00
2022-11-15T06:26:08.876Z,99225.00
2022-11-15T06:28:55.781Z,99226.00
2022-11-15T06:31:42.280Z,99225.00
2022-11-15T06:34:29.027Z,99231.00
2022-11-15T06:37:15.538Z,99224.00
2022-11-15T06:40:04.432Z,99244.00
2022-11-15T06:42:50.894Z,99232.00
2022-11-15T06:45:37.520Z,99238.00
2022-11-15T06:48:24.757Z,99245.00
2022-11-15T06:51:11.566Z,99236.00
2022-11-15T06:53:58.300Z,99245.00
2022-11-15T06:56:46.428Z,99244.00
2022-11-15T06:59:36.413Z,99258.00
2022-11-15T07:02:27.378Z,99256.00
2022-11-15T07:05:15.564Z,99253.00
2022-11-15T07:08:02.242Z,99252.00
2022-11-15T07:10:48.900Z,99262.00
2022-11-15T07:13:38.360Z,99259.00
2022-11-15T07:16:25.033Z,99264.00
2022-11-15T07:19:11.768Z,99269.00
2022-11-15T07:21:58.932Z,99269.00
2022-11-15T07:24:45.371Z,99267.00
2022-11-15T07:27:31.926Z,99264.00
2022-11-15T07:30:20.017Z,99259.00
2022-11-15T07:33:06.707Z,99262.00
2022-11-15T07:35:53.315Z,99263.00
2022-11-15T07:38:42.955Z,99262.00
2022-11-15T07:41:30.540Z,99263.00
2022-11-15T07:44:16.987Z,99263.00
2022-11-15T07:47:05.243Z,99266.00
2022-11-15T07:49:52.131Z,99266.00
2022-11-15T07:52:39.224Z,99278.00
2022-11-15T07:55:26.527Z,99280.00
2022-11-15T07:58:14.262Z,99272.00
2022-11-15T08:01:05.006Z,99268.00
2022-11-15T08:03:53.018Z,99270.00
2022-11-15T08:06:39.673Z,99273.00
2022-11-15T08:09:26.430Z,99262.00
2022-11-15T08:12:12.988Z,99262.00
2022-11-15T08:14:59.696Z,99268.00
2022-11-15T08:17:46.110Z,99262.00
2022-11-15T08:20:35.120Z,99259.00
2022-11-15T08:23:21.593Z,99255.00
2022-11-15T08:26:08.032Z,99246.00
2022-11-15T08:28:54.576Z,99250.00
2022-11-15T08:31:41.301Z,99254.00
2022-11-15T08:34:28.125Z,99257.00
2022-11-15T08:37:15.939Z,99250.00
2022-11-15T08:40:02.645Z,99254.00
2022-11-15T08:42:49.781Z,99246.00
2022-11-15T08:45:37.816Z,99238.00
2022-11-15T08:48:24.532Z,99244.00
2022-11-15T08:51:11.504Z,99234.00
2022-11-15T08:53:59.514Z,99230.00
2022-11-15T08:56:46.245Z,99237.00
2022-11-15T08:59:32.961Z,99233.00
2022-11-15T09:02:20.212Z,99238.00
2022-11-15T09:05:09.218Z,99235.00
2022-11-15T09:07:56.670Z,99230.00
2022-11-15T09:10:44.629Z,99236.00
2022-11-15T09:13:31.461Z,99236.00
2022-11-15T09:16:18.301Z,99235.00
2022-11-15T09:19:10.503Z,99232.00
2022-11-15T09:21:58.169Z,99232.00
2022-11-15T09:24:44.586Z,99225.00
2022-11-15T09:27:33.771Z,99231.00
2022-11-15T09:30:20.794Z,99220.00
2022-11-15T09:33:10.931Z,99227.00
2022-11-15T09:36:03.171Z,99227.00
2022-11-15T09:38:49.717Z,99215.00
2022-11-15T09:42:24.185Z,99207.00
2022-11-15T09:45:23.487Z,99201.00
2022-11-15T09:48:40.656Z,99211.00
2022-11-15T09:51:36.097Z,99206.00
2022-11-15T09:57:16.001Z,99208.00
2022-11-15T10:00:23.926Z,99196.00
2022-11-15T10:03:10.853Z,99188.00
2022-11-15T10:05:45.129Z,99194.00
2022-11-15T10:08:42.334Z,99186.00
2022-11-15T10:14:13.048Z,99172.00
2022-11-15T10:17:32.046Z,99175.00
2022-11-15T10:20:18.760Z,99173.00
2022-11-15T10:22:51.489Z,99169.00
2022-11-15T10:25:24.508Z,99170.00
2022-11-15T10:27:59.976Z,99165.00
2022-11-15T10:30:36.862Z,99170.00
2022-11-15T10:33:31.797Z,99164.00
2022-11-15T10:36:26.574Z,99161.00
2022-11-15T10:38:58.842Z,99156.00
2022-11-15T10:41:38.709Z,99148.00
2022-11-15T10:44:30.531Z,99134.00
2022-11-15T10:47:39.660Z,99133.00
2022-11-15T10:50:28.993Z,99119.00
2022-11-15T10:52:59.209Z,99130.00
2022-11-15T10:55:32.494Z,99132.00
2022-11-15T10:58:07.854Z,99116.00
2022-11-15T11:00:40.315Z,99119.00
2022-11-15T11:03:30.758Z,99115.00
2022-11-15T11:06:12.621Z,99111.00
2022-11-15T11:08:42.606Z,99118.00
2022-11-15T11:11:11.160Z,99109.00
2022-11-15T11:13:41.721Z,99110.00
2022-11-15T11:16:46.674Z,99108.00
2022-11-15T11:19:39.483Z,99102.00
2022-11-15T11:22:21.097Z,99098.00
2022-11-15T11:25:05.988Z,99096.00
2022-11-15T11:27:49.104Z,99089.00
2022-11-15T11:30:22.683Z,99091.00
2022-11-15T11:33:11.224Z,99078.00
2022-11-15T11:35:52.032Z,99079.00
2022-11-15T11:38:41.433Z,99072.00
2022-11-15T11:41:29.115Z,99050.00
2022-11-15T11:44:17.888Z,99068.00
2022-11-15T11:46:58.451Z,99071.00
2022-11-15T11:49:39.967Z,99063.00
2022-11-15T11:52:17.914Z,99064.00
2022-11-15T11:55:01.129Z,99066.00
2022-11-15T11:57:42.191Z,99056.00
2022-11-15T12:00:21.333Z,99050.00
2022-11-15T12:03:05.825Z,99041.00
2022-11-15T12:05:41.329Z,99039.00
2022-11-15T12:08:27.927Z,99033.00
2022-11-15T12:11:08.859Z,99028.00
2022-11-15T12:13:40.306Z,99031.00
2022-11-15T12:16:18.180Z,99033.00
2022-11-15T12:18:52.701Z,99025.00
2022-11-15T12:21:34.210Z,99013.00
2022-11-15T12:24:08.604Z,99012.00
2022-11-15T12:26:42.962Z,99013.00
2022-11-15T12:29:21.451Z,99011.00
2022-11-15T12:31:56.582Z,98998.00
2022-11-15T12:34:46.935Z,99000.00
2022-11-15T12:37:50.884Z,99000.00
2022-11-15T12:40:24.667Z,99001.00
2022-11-15T12:43:43.021Z,98999.00
2022-11-15T12:46:24.259Z,98997.00
2022-11-15T12:48:57.204Z,98988.00
2022-11-15T12:52:09.337Z,98981.00
2022-11-15T12:55:03.824Z,98983.00
2022-11-15T12:57:44.115Z,98980.00
2022-11-15T13:00:48.573Z,98987.00
2022-11-15T13:03:25.401Z,98983.00
2022-11-15T13:06:08.043Z,98977.00
2022-11-15T13:08:52.027Z,98976.00
2022-11-15T13:11:50.909Z,98980.00
2022-11-15T13:14:45.929Z,98965.00
2022-11-15T13:17:35.458Z,98968.00
2022-11-15T13:20:25.696Z,98970.00
2022-11-15T13:23:03.195Z,98966.00
2022-11-15T13:26:11.188Z,98962.00
2022-11-15T13:28:45.445Z,98966.00
2022-11-15T13:31:27.932Z,98957.00
2022-11-15T13:34:01.908Z,98961.00
2022-11-15T13:36:35.041Z,98954.00
2022-11-15T13:39:07.522Z,98951.00
2022-11-15T13:41:46.786Z,98947.00
2022-11-15T13:44:23.607Z,98945.00
2022-11-15T13:47:04.378Z,98936.00
2022-11-15T13:49:34.683Z,98938.00
2022-11-15T13:52:08.834Z,98942.00
2022-11-15T13:54:44.952Z,98935.00
2022-11-15T13:57:21.183Z,98933.00
2022-11-15T13:59:53.734Z,98938.00
2022-11-15T14:02:27.880Z,98937.00
2022-11-15T14:05:00.156Z,98933.00
2022-11-15T14:07:30.554Z,98932.00
2022-11-15T14:09:58.683Z,98928.00
2022-11-15T14:12:32.872Z,98930.00
2022-11-15T14:15:04.164Z,98929.00
2022-11-15T14:17:45.712Z,98926.00
2022-11-15T14:20:31.606Z,98921.00
2022-11-15T14:23:02.116Z,98918.00
2022-11-15T14:25:31.873Z,98931.00
2022-11-15T14:28:31.898Z,98926.00
2022-11-15T14:31:02.053Z,98920.00
2022-11-15T14:33:33.724Z,98927.00
2022-11-15T14:36:08.456Z,98924.00
2022-11-15T14:38:36.688Z,98929.00
2022-11-15T14:41:04.875Z,98923.00
2022-11-15T14:43:34.313Z,98921.00
2022-11-15T14:46:02.376Z,98920.00
2022-11-15T14:48:30.919Z,98916.00
2022-11-15T14:50:59.240Z,98912.00
2022-11-15T14:53:27.364Z,98909.00
2022-11-15T14:55:55.374Z,98908.00
2022-11-15T14:58:23.437Z,98904.00
2022-11-15T15:00:52.765Z,98889.00
2022-11-15T15:03:20.808Z,98897.00
2022-11-15T15:05:48.803Z,98898.00
2022-11-15T15:08:16.968Z,98895.00
2022-11-15T15:10:47.571Z,98891.00
2022-11-15T15:13:21.406Z,98885.00
2022-11-15T15:15:52.390Z,98893.00
2022-11-15T15:18:21.513Z,98885.00
2022-11-15T15:20:57.293Z,98888.00
2022-11-15T15:23:26.529Z,98889.00
2022-11-15T15:25:54.734Z,98895.00
2022-11-15T15:28:23.008Z,98894.00
2022-11-15T15:30:53.679Z,98895.00
2022-11-15T15:33:21.724Z,98884.00
2022-11-15T15:35:50.228Z,98887.00
2022-11-15T15:38:18.271Z,98876.00
2022-11-15T15:40:46.377Z,98879.00
2022-11-15T15:43:14.499Z,98874.00
2022-11-15T15:45:44.285Z,98881.00
2022-11-15T15:48:16.520Z,98874.00
2022-11-15T15:50:46.018Z,98879.00
2022-11-15T15:53:15.251Z,98876.00
2022-11-15T15:55:43.438Z,98871.00
2022-11-15T15:58:12.144Z,98874.00
2022-11-15T16:00:40.463Z,98873.00
2022-11-15T16:03:08.561Z,98869.00
2022-11-15T16:05:37.961Z,98871.00
2022-11-15T16:08:06.366Z,98870.00
2022-11-15T16:10:36.184Z,98873.00
2022-11-15T16:13:04.948Z,98872.00
2022-11-15T16:15:33.934Z,98873.00
2022-11-15T16:18:03.614Z,98877.00
2022-11-15T16:20:42.004Z,98870.00
2022-11-15T16:23:12.758Z,98866.00
2022-11-15T16:25:46.961Z,98868.00
2022-11-15T16:28:25.029Z,98863.00
2022-11-15T16:31:03.534Z,98854.00
2022-11-15T16:33:32.490Z,98854.00
2022-11-15T16:36:02.894Z,98856.00
2022-11-15T16:38:32.226Z,98853.00
2022-11-15T16:41:00.486Z,98851.00
2022-11-15T16:43:28.565Z,98845.00
2022-11-15T16:45:56.679Z,98838.00
2022-11-15T16:48:27.309Z,98841.00
2022-11-15T16:50:58.200Z,98838.00
2022-11-15T16:53:29.052Z,98843.00
2022-11-15T16:55:58.104Z,98841.00
2022-11-15T16:58:26.325Z,98836.00
2022-11-15T17:00:56.958Z,98827.00
2022-11-15T17:03:26.437Z,98826.00
2022-11-15T17:05:54.632Z,98831.00
2022-11-15T17:08:24.172Z,98835.00
2022-11-15T17:10:53.822Z,98837.00
2022-11-15T17:13:21.852Z,98840.00
2022-11-15T17:15:49.864Z,98838.00
2022-11-15T17:18:17.867Z,98839.00
2022-11-15T17:20:45.892Z,98844.00
2022-11-15T17:23:15.687Z,98843.00
2022-11-15T17:25:43.933Z,98835.00
2022-11-15T17:28:13.349Z,98831.00
2022-11-15T17:30:44.608Z,98829.00
2022-11-15T17:33:12.745Z,98819.00
2022-11-15T17:35:40.768Z,98820.00
2022-11-15T17:38:09.063Z,98818.00
2022-11-15T17:40:37.159Z,98821.00
2022-11-15T17:43:07.071Z,98811.00
2022-11-15T17:45:41.121Z,98799.00
2022-11-15T17:48:09.300Z,98801.00
2022-11-15T17:50:37.345Z,98803.00
2022-11-15T17:53:05.342Z,98794.00
2022-11-15T17:55:34.334Z,98799.00
2022-11-15T17:58:02.372Z,98795.00
2022-11-15T18:00:30.776Z,98799.00
2022-11-15T18:03:00.256Z,98787.00
2022-11-15T18:05:28.251Z,98806.00
2022-11-15T18:07:56.220Z,98799.00
2022-11-15T18:10:24.241Z,98795.00
2022-11-15T18:12:52.269Z,98798.00
2022-11-15T18:15:21.294Z,98803.00
2022-11-15T18:17:49.488Z,98795.00
2022-11-15T18:20:19.280Z,98802.00
2022-11-15T18:22:47.350Z,98798.00
2022-11-15T18:25:16.004Z,98797.00
2022-11-15T18:27:44.141Z,98805.00
2022-11-15T18:30:13.531Z,98787.00
2022-11-15T18:32:41.544Z,98796.00
2022-11-15T18:35:09.932Z,98810.00
2022-11-15T18:37:39.324Z,98812.00
2022-11-15T18:40:09.415Z,98810.00
2022-11-15T18:42:37.572Z,98805.00
2022-11-15T18:45:06.562Z,98811.00
2022-11-15T18:47:34.735Z,98800.00
2022-11-15T18:50:02.749Z,98793.00
2022-11-15T18:52:30.784Z,98803.00
2022-11-15T18:55:00.288Z,98799.00
2022-11-15T18:57:28.337Z,98799.00
2022-11-15T18:59:56.345Z,98805.00
2022-11-15T19:02:24.362Z,98804.00
2022-11-15T19:04:52.472Z,98799.00
2022-11-15T19:07:20.580Z,98796.00
2022-11-15T19:09:48.919Z,98799.00
2022-11-15T19:12:18.347Z,98804.00
2022-11-15T19:14:48.495Z,98788.00
2022-11-15T19:17:16.529Z,98791.00
2022-11-15T19:19:44.602Z,98785.00
2022-11-15T19:22:12.733Z,98791.00
2022-11-15T19:24:40.848Z,98779.00
2022-11-15T19:27:09.281Z,98777.00
2022-11-15T19:29:38.648Z,98771.00
2022-11-15T19:32:06.836Z,98772.00
2022-11-15T19:34:34.833Z,98769.00
2022-11-15T19:37:03.378Z,98771.00
2022-11-15T19:39:31.375Z,98771.00
2022-11-15T19:41:59.461Z,98763.00
2022-11-15T19:44:27.556Z,98765.00
2022-11-15T19:46:57.017Z,98759.00
2022-11-15T19:49:26.028Z,98752.00
2022-11-15T19:51:54.106Z,98751.00
2022-11-15T19:54:22.116Z,98745.00
2022-11-15T19:56:51.704Z,98741.00
2022-11-15T19:59:19.782Z,98740.00
2022-11-15T20:01:47.869Z,98733.00
2022-11-15T20:04:17.615Z,98736.00
2022-11-15T20:06:45.735Z,98736.00
2022-11-15T20:09:15.949Z,98740.00
2022-11-15T20:11:44.808Z,98736.00
2022-11-15T20:14:13.413Z,98747.00
2022-11-15T20:16:42.018Z,98740.00
2022-11-15T20:19:12.219Z,98738.00
2022-11-15T20:21:41.640Z,98740.00
2022-11-15T20:24:10.339Z,98736.00
2022-11-15T20:26:39.234Z,98738.00
2022-11-15T20:29:08.497Z,98740.00
2022-11-15T20:31:37.178Z,98741.00
2022-11-15T20:34:05.175Z,98729.00
2022-11-15T20:36:33.264Z,98734.00
2022-11-15T20:39:02.835Z,98729.00
2022-11-15T20:41:30.958Z,98724.00
2022-11-15T20:43:59.453Z,98727.00
2022-11-15T20:46:27.603Z,98723.00
2022-11-15T20:48:55.627Z,98715.00
2022-11-15T20:51:23.621Z,98701.00
2022-11-15T20:53:51.829Z,98710.00
2022-11-15T20:56:22.889Z,98696.00
2022-11-15T20:58:51.874Z,98697.00
2022-11-15T21:01:23.743Z,98690.00
2022-11-15T21:03:52.944Z,98696.00
2022-11-15T21:06:21.382Z,98699.00
2022-11-15T21:09:08.175Z,98694.00
2022-11-15T21:11:56.018Z,98698.00
2022-11-15T21:14:24.334Z,98705.00
2022-11-15T21:16:52.688Z,98700.00
2022-11-15T21:19:26.652Z,98707.00
2022-11-15T21:21:57.176Z,98701.00
2022-11-15T21:24:25.522Z,98695.00
2022-11-15T21:26:56.139Z,98693.00
2022-11-15T21:29:24.522Z,98693.00
2022-11-15T21:31:53.487Z,98693.00
2022-11-15T21:34:22.086Z,98685.00
2022-11-15T21:36:50.158Z,98684.00
2022-11-15T21:39:18.261Z,98680.00
2022-11-15T21:41:46.333Z,98678.00
2022-11-15T21:44:15.768Z,98674.00
2022-11-15T21:46:44.010Z,98672.00
2022-11-15T21:49:12.288Z,98678.00
2022-11-15T21:51:40.385Z,98677.00
2022-11-15T21:54:09.263Z,98676.00
2022-11-15T21:56:37.894Z,98665.00
2022-11-15T21:59:06.034Z,98676.00
2022-11-15T22:01:52.882Z,98668.00
2022-11-15T22:04:30.389Z,98670.00
2022-11-15T22:06:58.417Z,98663.00
2022-11-15T22:09:26.470Z,98657.00
2022-11-15T22:11:54.785Z,98670.00
2022-11-15T22:14:22.889Z,98656.00
2022-11-15T22:16:52.189Z,98657.00
2022-11-15T22:19:20.240Z,98651.00
2022-11-15T22:21:48.354Z,98654.00
2022-11-15T22:24:16.460Z,98667.00
2022-11-15T22:26:44.572Z,98663.00
2022-11-15T22:29:12.640Z,98666.00
2022-11-15T22:31:40.749Z,98665.00
2022-11-15T22:34:10.446Z,98661.00
2022-11-15T22:36:58.519Z,98657.00
2022-11-15T22:39:26.781Z,98654.00
2022-11-15T22:41:55.070Z,98649.00
2022-11-15T22:44:23.135Z,98650.00
2022-11-15T22:46:51.213Z,98640.00
2022-11-15T22:49:20.640Z,98644.00
2022-11-15T22:51:48.746Z,98631.00
2022-11-15T22:54:16.819Z,98631.00
2022-11-15T22:56:45.281Z,98629.00
2022-11-15T22:59:13.756Z,98633.00
2022-11-15T23:01:41.881Z,98620.00
2022-11-15T23:04:10.085Z,98608.00
2022-11-15T23:06:39.467Z,98611.00
2022-11-15T23:09:07.563Z,98613.00
2022-11-15T23:11:53.320Z,98605.00
2022-11-15T23:14:21.398Z,98604.00
2022-11-15T23:16:49.461Z,98606.00
2022-11-15T23:19:17.596Z,98595.00
2022-11-15T23:22:16.968Z,98599.00
2022-11-15T23:24:45.041Z,98590.00
2022-11-15T23:27:15.339Z,98585.00
2022-11-15T23:30:00.874Z,98580.00
2022-11-15T23:32:46.733Z,98579.00
2022-11-15T23:35:17.280Z,98578.00
2022-11-15T23:37:46.805Z,98579.00
2022-11-15T23:40:15.077Z,98579.00
2022-11-15T23:42:43.210Z,98583.00
2022-11-15T23:45:12.635Z,98584.00
2022-11-15T23:47:40.703Z,98568.00
2022-11-15T23:50:09.980Z,98567.00
2022-11-15T23:52:38.677Z,98560.00
2022-11-15T23:55:09.373Z,98567.00
2022-11-15T23:57:37.472Z,98567.00
